createdAt,value
2023-01-12T00:02:32.843Z,7.30
2023-01-12T00:05:20.709Z,7.40
2023-01-12T00:08:18.054Z,7.40
2023-01-12T00:11:14.106Z,7.40
2023-01-12T00:14:08.984Z,7.40
2023-01-12T00:16:57.449Z,7.50
2023-01-12T00:19:46.055Z,7.40
2023-01-12T00:22:42.357Z,7.40
2023-01-12T00:25:29.961Z,7.50
2023-01-12T00:31:28.476Z,7.50
2023-01-12T00:34:20.116Z,7.50
2023-01-12T00:37:08.361Z,7.60
2023-01-12T00:40:02.602Z,7.60
2023-01-12T00:43:11.269Z,7.50
2023-01-12T00:46:10.319Z,7.60
2023-01-12T00:49:00.299Z,7.60
2023-01-12T00:51:55.537Z,7.70
2023-01-12T00:54:55.050Z,7.70
2023-01-12T00:57:50.324Z,7.70
2023-01-12T01:00:38.365Z,7.70
2023-01-12T01:03:36.583Z,7.70
2023-01-12T01:06:32.706Z,7.80
2023-01-12T01:09:21.074Z,7.80
2023-01-12T01:12:17.611Z,7.90
2023-01-12T01:15:05.998Z,7.90
2023-01-12T01:17:53.860Z,7.90
2023-01-12T01:20:47.477Z,7.90
2023-01-12T01:23:40.245Z,7.90
2023-01-12T01:26:36.675Z,8.00
2023-01-12T01:29:24.701Z,8.00
2023-01-12T01:32:12.790Z,8.00
2023-01-12T01:35:04.423Z,8.10
2023-01-12T01:37:54.634Z,8.10
2023-01-12T01:40:43.981Z,8.10
2023-01-12T01:43:50.652Z,8.00
2023-01-12T01:46:57.487Z,8.00
2023-01-12T01:49:54.380Z,8.00
2023-01-12T01:52:47.900Z,8.00
2023-01-12T01:55:51.815Z,8.00
2023-01-12T01:58:44.619Z,7.90
2023-01-12T02:01:33.165Z,7.90
2023-01-12T02:04:21.589Z,7.80
2023-01-12T02:07:12.483Z,7.80
2023-01-12T02:10:02.160Z,7.80
2023-01-12T02:13:12.368Z,7.80
2023-01-12T02:16:35.396Z,7.70
2023-01-12T02:19:52.661Z,7.70
2023-01-12T02:23:21.111Z,7.70
2023-01-12T02:27:07.028Z,7.70
2023-01-12T02:29:59.649Z,7.80
2023-01-12T02:33:08.011Z,7.80
2023-01-12T02:36:16.537Z,7.80
2023-01-12T02:39:38.933Z,7.90
2023-01-12T02:43:21.461Z,8.00
2023-01-12T02:46:28.385Z,8.00
2023-01-12T02:49:34.692Z,8.10
2023-01-12T02:52:40.268Z,8.00
2023-01-12T02:55:38.021Z,8.00
2023-01-12T03:01:38.320Z,8.10
2023-01-12T03:04:40.101Z,8.00
2023-01-12T03:08:02.516Z,8.10
2023-01-12T03:11:18.033Z,8.10
2023-01-12T03:14:26.267Z,8.10
2023-01-12T03:18:00.696Z,8.10
2023-01-12T03:21:29.600Z,8.10
2023-01-12T03:24:28.501Z,8.10
2023-01-12T03:27:36.647Z,8.10
2023-01-12T03:31:31.346Z,8.10
2023-01-12T03:34:52.750Z,8.10
2023-01-12T03:37:47.232Z,8.10
2023-01-12T03:40:59.238Z,8.10
2023-01-12T03:44:02.894Z,8.10
2023-01-12T03:47:05.303Z,8.10
2023-01-12T03:50:27.992Z,8.10
2023-01-12T03:53:20.235Z,8.10
2023-01-12T03:56:11.573Z,8.10
2023-01-12T03:59:04.460Z,8.20
2023-01-12T04:01:58.002Z,8.20
2023-01-12T04:04:46.181Z,8.20
2023-01-12T04:07:39.847Z,8.30
2023-01-12T04:10:41.978Z,8.30
2023-01-12T04:13:29.826Z,8.30
2023-01-12T04:16:17.969Z,8.30
2023-01-12T04:19:15.963Z,8.40
2023-01-12T04:22:32.739Z,8.40
2023-01-12T04:25:24.744Z,8.40
2023-01-12T04:28:13.327Z,8.40
2023-01-12T04:31:19.225Z,8.50
2023-01-12T04:34:09.312Z,8.50
2023-01-12T04:37:25.409Z,8.50
2023-01-12T04:40:18.063Z,8.50
2023-01-12T04:43:08.536Z,8.50
2023-01-12T04:46:18.905Z,8.50
2023-01-12T04:49:13.009Z,8.50
2023-01-12T04:52:04.627Z,8.50
2023-01-12T04:54:58.495Z,8.60
2023-01-12T04:57:51.503Z,8.60
2023-01-12T05:00:46.308Z,8.50
2023-01-12T05:03:34.933Z,8.60
2023-01-12T05:06:24.148Z,8.60
2023-01-12T05:09:43.322Z,8.50
2023-01-12T05:12:32.422Z,8.50
2023-01-12T05:15:22.931Z,8.60
2023-01-12T05:18:13.945Z,8.60
2023-01-12T05:21:02.367Z,8.60
2023-01-12T05:24:07.082Z,8.60
2023-01-12T05:26:59.976Z,8.60
2023-01-12T05:29:48.646Z,8.60
2023-01-12T05:33:05.733Z,8.60
2023-01-12T05:35:55.439Z,8.70
2023-01-12T05:38:44.355Z,8.60
2023-01-12T05:41:33.975Z,8.60
2023-01-12T05:44:24.545Z,8.60
2023-01-12T05:47:22.073Z,8.60
2023-01-12T05:50:15.625Z,8.60
2023-01-12T05:53:03.827Z,8.60
2023-01-12T05:59:49.046Z,8.60
2023-01-12T06:02:37.433Z,8.60
2023-01-12T06:05:27.231Z,8.60
2023-01-12T06:08:17.529Z,8.70
2023-01-12T06:11:31.266Z,8.70
2023-01-12T06:14:25.652Z,8.60
2023-01-12T06:17:18.720Z,8.60
2023-01-12T06:20:17.388Z,8.50
2023-01-12T06:23:05.809Z,8.40
2023-01-12T06:26:10.703Z,8.30
2023-01-12T06:29:06.051Z,8.20
2023-01-12T06:31:55.084Z,8.10
2023-01-12T06:34:48.739Z,8.00
2023-01-12T06:37:46.568Z,8.00
2023-01-12T06:40:34.453Z,7.90
2023-01-12T06:43:22.186Z,7.90
2023-01-12T06:46:10.284Z,7.90
2023-01-12T06:49:01.318Z,7.90
2023-01-12T06:51:51.641Z,7.90
2023-01-12T06:54:41.795Z,7.90
2023-01-12T06:57:36.927Z,7.90
2023-01-12T07:00:24.797Z,7.90
2023-01-12T07:03:24.199Z,7.80
2023-01-12T07:06:14.672Z,7.80
2023-01-12T07:09:13.065Z,7.80
2023-01-12T07:12:01.118Z,7.80
2023-01-12T07:14:49.566Z,7.80
2023-01-12T07:17:42.505Z,7.80
2023-01-12T07:21:02.021Z,7.70
2023-01-12T07:27:01.682Z,7.80
2023-01-12T07:30:18.201Z,7.70
2023-01-12T07:33:23.335Z,7.80
2023-01-12T07:36:24.914Z,7.80
2023-01-12T07:39:16.144Z,7.80
2023-01-12T07:42:24.845Z,7.80
2023-01-12T07:45:15.627Z,7.80
2023-01-12T07:48:07.495Z,7.80
2023-01-12T07:51:02.676Z,7.80
2023-01-12T07:53:53.242Z,7.80
2023-01-12T07:56:56.334Z,7.80
2023-01-12T07:59:51.907Z,7.80
2023-01-12T08:02:57.592Z,7.80
2023-01-12T08:06:04.572Z,7.70
2023-01-12T08:09:09.914Z,7.70
2023-01-12T08:12:27.731Z,7.70
2023-01-12T08:22:39.196Z,7.70
2023-01-12T08:32:47.744Z,7.60
2023-01-12T08:43:14.993Z,7.50
2023-01-12T08:46:08.760Z,7.50
2023-01-12T08:49:10.954Z,7.50
2023-01-12T08:52:02.360Z,7.50
2023-01-12T08:54:53.184Z,7.50
2023-01-12T08:57:44.133Z,7.50
2023-01-12T09:00:34.973Z,7.50
2023-01-12T09:03:26.640Z,7.50
2023-01-12T09:06:38.736Z,7.50
2023-01-12T09:09:32.066Z,7.50
2023-01-12T09:12:28.961Z,7.60
2023-01-12T09:15:18.837Z,7.60
2023-01-12T09:18:12.615Z,7.60
2023-01-12T09:21:11.814Z,7.70
2023-01-12T09:24:00.305Z,7.70
2023-01-12T09:27:00.556Z,7.70
2023-01-12T09:29:54.415Z,7.70
2023-01-12T09:32:47.591Z,7.70
2023-01-12T09:35:41.297Z,7.70
2023-01-12T09:38:41.366Z,7.70
2023-01-12T09:42:01.519Z,7.80
2023-01-12T09:45:12.339Z,7.80
2023-01-12T09:48:04.585Z,7.90
2023-01-12T09:51:05.146Z,7.90
2023-01-12T09:53:59.537Z,7.80
2023-01-12T09:57:37.727Z,7.80
2023-01-12T10:00:24.984Z,7.80
2023-01-12T10:03:42.129Z,7.90
2023-01-12T10:06:43.017Z,7.90
2023-01-12T10:09:42.794Z,7.90
2023-01-12T10:12:44.313Z,8.00
2023-01-12T10:15:57.805Z,8.00
2023-01-12T10:19:10.648Z,8.00
2023-01-12T10:22:08.292Z,8.10
2023-01-12T10:25:29.934Z,8.10
2023-01-12T10:28:34.228Z,8.10
2023-01-12T10:31:42.302Z,8.20
2023-01-12T10:35:09.735Z,8.10
2023-01-12T10:37:57.519Z,8.20
2023-01-12T10:44:16.775Z,8.30
2023-01-12T10:47:18.828Z,8.20
2023-01-12T10:50:32.810Z,8.20
2023-01-12T10:53:36.290Z,8.20
2023-01-12T10:56:35.055Z,8.20
2023-01-12T10:59:37.001Z,8.20
2023-01-12T11:02:31.768Z,8.20
2023-01-12T11:05:35.149Z,8.20
2023-01-12T11:08:29.279Z,8.20
2023-01-12T11:11:32.544Z,8.20
2023-01-12T11:14:38.965Z,8.20
2023-01-12T11:17:37.026Z,8.20
2023-01-12T11:20:30.575Z,8.20
2023-01-12T11:23:42.453Z,8.20
2023-01-12T11:26:51.116Z,8.20
2023-01-12T11:30:15.981Z,8.10
2023-01-12T11:33:30.988Z,8.20
2023-01-12T11:36:24.629Z,8.20
2023-01-12T11:39:24.190Z,8.20
2023-01-12T11:42:49.408Z,8.20
2023-01-12T11:45:55.042Z,8.20
2023-01-12T11:49:38.265Z,8.20
2023-01-12T11:52:27.607Z,8.30
2023-01-12T11:55:41.909Z,8.30
2023-01-12T11:58:47.697Z,8.30
2023-01-12T12:02:05.582Z,8.40
2023-01-12T12:05:27.332Z,8.50
2023-01-12T12:08:41.938Z,8.50
2023-01-12T12:11:48.999Z,8.50
2023-01-12T12:14:50.254Z,8.50
2023-01-12T12:18:06.421Z,8.50
2023-01-12T12:21:32.509Z,8.50
2023-01-12T12:24:47.290Z,8.40
2023-01-12T12:28:16.459Z,8.40
2023-01-12T12:31:40.345Z,8.40
2023-01-12T12:34:59.050Z,8.40
2023-01-12T12:38:16.838Z,8.30
2023-01-12T12:41:26.684Z,8.30
2023-01-12T12:45:03.727Z,8.30
2023-01-12T12:48:18.245Z,8.30
2023-01-12T12:51:12.863Z,8.20
2023-01-12T12:54:17.513Z,8.20
2023-01-12T12:57:11.492Z,8.20
2023-01-12T13:00:04.228Z,8.10
2023-01-12T13:03:08.057Z,8.20
2023-01-12T13:06:17.132Z,8.20
2023-01-12T13:09:31.029Z,8.20
2023-01-12T13:12:33.903Z,8.20
2023-01-12T13:15:47.249Z,8.30
2023-01-12T13:19:05.709Z,8.30
2023-01-12T13:22:11.558Z,8.30
2023-01-12T13:25:13.092Z,8.30
2023-01-12T13:28:02.236Z,8.30
2023-01-12T13:30:54.524Z,8.30
2023-01-12T13:34:20.595Z,8.40
2023-01-12T13:37:41.789Z,8.40
2023-01-12T13:40:55.513Z,8.40
2023-01-12T13:44:06.180Z,8.40
2023-01-12T13:47:21.641Z,8.50
2023-01-12T13:50:18.788Z,8.40
2023-01-12T13:53:28.598Z,8.50
2023-01-12T13:56:26.263Z,8.50
2023-01-12T13:59:21.878Z,8.50
2023-01-12T14:02:22.632Z,8.60
2023-01-12T14:05:46.520Z,8.60
2023-01-12T14:08:52.264Z,8.50
2023-01-12T14:12:10.665Z,8.50
2023-01-12T14:15:47.480Z,8.50
2023-01-12T14:18:46.595Z,8.60
2023-01-12T14:21:58.504Z,8.60
2023-01-12T14:24:48.797Z,8.60
2023-01-12T14:27:36.558Z,8.60
2023-01-12T14:30:32.277Z,8.60
2023-01-12T14:33:23.630Z,8.70
2023-01-12T14:36:43.819Z,8.70
2023-01-12T14:39:43.494Z,8.70
2023-01-12T14:42:52.507Z,8.70
2023-01-12T14:46:25.276Z,8.60
2023-01-12T14:49:38.721Z,8.60
2023-01-12T14:52:33.932Z,8.60
2023-01-12T14:55:43.184Z,8.70
2023-01-12T14:58:38.363Z,8.70
2023-01-12T15:01:38.047Z,8.70
2023-01-12T15:04:26.257Z,8.80
2023-01-12T15:07:17.292Z,8.80
2023-01-12T15:10:29.633Z,8.90
2023-01-12T15:13:32.886Z,8.90
2023-01-12T15:16:39.286Z,9.00
2023-01-12T15:19:45.361Z,9.00
2023-01-12T15:22:51.165Z,9.00
2023-01-12T15:25:41.441Z,9.00
2023-01-12T15:28:30.292Z,9.00
2023-01-12T15:31:20.787Z,9.00
2023-01-12T15:34:11.405Z,9.10
2023-01-12T15:36:58.920Z,9.10
2023-01-12T15:39:47.049Z,9.10
2023-01-12T15:42:34.737Z,9.10
2023-01-12T15:45:30.708Z,9.10
2023-01-12T15:48:18.427Z,9.10
2023-01-12T15:51:06.134Z,9.10
2023-01-12T15:53:53.633Z,9.10
2023-01-12T15:56:41.431Z,9.10
2023-01-12T15:59:28.957Z,9.10
2023-01-12T16:02:27.465Z,9.20
2023-01-12T16:05:17.666Z,9.20
2023-01-12T16:19:49.629Z,9.30
2023-01-12T16:22:37.324Z,9.30
2023-01-12T16:25:26.448Z,9.20
2023-01-12T16:28:14.430Z,9.20
2023-01-12T16:31:09.432Z,9.20
2023-01-12T16:33:57.276Z,9.20
2023-01-12T16:36:45.211Z,9.20
2023-01-12T16:39:40.309Z,9.20
2023-01-12T16:42:31.861Z,9.20
2023-01-12T16:45:19.936Z,9.20
2023-01-12T16:48:39.859Z,9.20
2023-01-12T16:51:27.964Z,9.20
2023-01-12T16:54:23.769Z,9.20
2023-01-12T16:57:16.331Z,9.20
2023-01-12T17:00:08.185Z,9.20
2023-01-12T17:02:58.937Z,9.30
2023-01-12T17:05:48.954Z,9.20
2023-01-12T17:08:42.337Z,9.20
2023-01-12T17:11:33.580Z,9.30
2023-01-12T17:14:27.163Z,9.30
2023-01-12T17:17:15.325Z,9.20
2023-01-12T17:20:11.795Z,9.20
2023-01-12T17:23:02.115Z,9.10
2023-01-12T17:28:56.029Z,9.10
2023-01-12T17:35:19.167Z,9.00
2023-01-12T17:38:12.642Z,9.10
2023-01-12T17:41:00.650Z,9.00
2023-01-12T17:43:50.997Z,9.00
2023-01-12T17:47:12.633Z,8.90
2023-01-12T17:50:03.560Z,8.90
2023-01-12T17:52:57.567Z,9.00
2023-01-12T17:55:56.895Z,9.00
2023-01-12T17:58:50.732Z,8.90
2023-01-12T18:01:42.863Z,8.70
2023-01-12T18:05:09.005Z,8.70
2023-01-12T18:08:00.325Z,8.70
2023-01-12T18:10:53.511Z,8.70
2023-01-12T18:13:44.025Z,8.70
2023-01-12T18:16:32.281Z,8.70
2023-01-12T18:19:20.931Z,8.70
2023-01-12T18:22:11.895Z,8.70
2023-01-12T18:25:08.693Z,8.70
2023-01-12T18:27:58.857Z,8.80
2023-01-12T18:30:50.626Z,8.80
2023-01-12T18:33:41.156Z,8.80
2023-01-12T18:36:29.482Z,8.80
2023-01-12T18:39:23.745Z,8.80
2023-01-12T18:42:51.709Z,8.70
2023-01-12T18:45:39.756Z,8.80
2023-01-12T18:48:39.387Z,8.80
2023-01-12T18:51:45.767Z,8.80
2023-01-12T18:58:02.554Z,8.80
2023-01-12T19:01:03.496Z,8.90
2023-01-12T19:04:00.131Z,8.90
2023-01-12T19:17:25.050Z,9.00
2023-01-12T19:20:40.970Z,9.00
2023-01-12T19:24:00.200Z,8.90
2023-01-12T19:30:40.974Z,8.80
2023-01-12T19:49:44.961Z,8.90
2023-01-12T19:55:57.744Z,9.10
2023-01-12T19:59:30.823Z,9.10
2023-01-12T20:12:05.106Z,9.20
2023-01-12T20:14:58.892Z,9.20
2023-01-12T20:18:09.264Z,9.20
2023-01-12T20:24:13.292Z,9.20
2023-01-12T20:27:10.767Z,9.20
2023-01-12T20:30:07.811Z,9.30
2023-01-12T20:38:17.333Z,9.20
2023-01-12T20:41:15.084Z,9.30
2023-01-12T20:44:31.261Z,9.30
2023-01-12T20:50:27.044Z,9.20
2023-01-12T20:53:39.418Z,9.10
2023-01-12T21:00:40.062Z,9.00
2023-01-12T21:22:33.983Z,8.80
2023-01-12T21:28:30.036Z,8.80
2023-01-12T21:31:44.114Z,8.90
2023-01-12T21:38:12.002Z,8.90
2023-01-12T21:41:31.650Z,8.80
2023-01-12T21:45:06.092Z,8.90
2023-01-12T21:47:59.965Z,8.90
2023-01-12T21:50:53.307Z,9.00
2023-01-12T21:56:52.276Z,9.00
2023-01-12T21:59:42.721Z,9.00
2023-01-12T22:02:32.491Z,8.90
2023-01-12T22:05:26.176Z,8.90
2023-01-12T22:08:16.916Z,8.90
2023-01-12T22:11:10.467Z,8.90
2023-01-12T22:13:59.015Z,8.90
2023-01-12T22:16:47.224Z,8.90
2023-01-12T22:19:39.468Z,8.90
2023-01-12T22:22:28.509Z,8.80
2023-01-12T22:25:17.869Z,8.80
2023-01-12T22:28:15.953Z,8.80
2023-01-12T22:31:15.269Z,8.80
2023-01-12T22:34:05.539Z,8.80
2023-01-12T22:36:59.713Z,8.80
2023-01-12T22:39:47.566Z,8.80
2023-01-12T22:43:00.993Z,8.80
2023-01-12T22:45:50.865Z,8.80
2023-01-12T22:48:42.485Z,8.80
2023-01-12T22:51:31.528Z,8.80
2023-01-12T22:54:21.626Z,8.80
2023-01-12T22:57:19.710Z,8.70
2023-01-12T23:00:12.805Z,8.70
2023-01-12T23:03:01.395Z,8.80
2023-01-12T23:05:56.651Z,8.70
2023-01-12T23:08:53.188Z,8.70
2023-01-12T23:12:00.915Z,8.70
2023-01-12T23:15:15.361Z,8.80
2023-01-12T23:18:14.678Z,8.80
2023-01-12T23:21:47.893Z,8.80
2023-01-12T23:24:44.460Z,8.80
2023-01-12T23:27:50.901Z,8.80
2023-01-12T23:30:38.945Z,8.80
2023-01-12T23:33:32.467Z,8.80
2023-01-12T23:36:39.626Z,8.80
2023-01-12T23:39:27.710Z,8.80
2023-01-12T23:42:15.665Z,8.90
2023-01-12T23:45:06.648Z,8.90
2023-01-12T23:47:59.847Z,8.90
2023-01-12T23:50:50.979Z,8.90
2023-01-12T23:53:39.037Z,8.90
2023-01-12T23:56:32.182Z,8.80
2023-01-12T23:59:20.243Z,8.80
